sensor_id;sensor_type;location;lat;lon;timestamp;pressure;altitude;pressure_sealevel;temperature;humidity
25869;BME280;13688;53.154;18.136;2023-04-27T00:03:49;100989.62;;;2.33;73.57
25869;BME280;13688;53.154;18.136;2023-04-27T00:09:13;100985.97;;;2.36;73.43
25869;BME280;13688;53.154;18.136;2023-04-27T00:14:36;100988.33;;;2.43;73.12
25869;BME280;13688;53.154;18.136;2023-04-27T00:19:58;100992.70;;;2.44;72.86
25869;BME280;13688;53.154;18.136;2023-04-27T00:25:21;100983.12;;;2.40;72.73
25869;BME280;13688;53.154;18.136;2023-04-27T00:30:43;100993.93;;;2.36;72.80
25869;BME280;13688;53.154;18.136;2023-04-27T00:36:06;100994.29;;;2.26;73.02
25869;BME280;13688;53.154;18.136;2023-04-27T00:41:29;100989.41;;;2.16;73.38
25869;BME280;13688;53.154;18.136;2023-04-27T00:46:55;100992.56;;;2.02;73.75
25869;BME280;13688;53.154;18.136;2023-04-27T00:52:19;100995.56;;;1.93;74.31
25869;BME280;13688;53.154;18.136;2023-04-27T00:57:42;101006.58;;;1.82;74.81
25869;BME280;13688;53.154;18.136;2023-04-27T01:03:05;101006.02;;;1.74;75.32
25869;BME280;13688;53.154;18.136;2023-04-27T01:08:29;101003.64;;;1.66;75.76
25869;BME280;13688;53.154;18.136;2023-04-27T01:13:51;101007.16;;;1.67;76.22
25869;BME280;13688;53.154;18.136;2023-04-27T01:19:16;100999.14;;;1.68;76.47
25869;BME280;13688;53.154;18.136;2023-04-27T01:24:38;101003.37;;;1.74;76.65
25869;BME280;13688;53.154;18.136;2023-04-27T01:30:01;101003.98;;;1.81;76.84
25869;BME280;13688;53.154;18.136;2023-04-27T01:35:24;101000.59;;;1.77;77.00
25869;BME280;13688;53.154;18.136;2023-04-27T01:40:47;101001.52;;;1.76;77.27
25869;BME280;13688;53.154;18.136;2023-04-27T01:46:13;101004.84;;;1.81;77.56
25869;BME280;13688;53.154;18.136;2023-04-27T01:51:35;101002.05;;;1.86;77.66
25869;BME280;13688;53.154;18.136;2023-04-27T01:56:58;101008.80;;;1.94;77.68
25869;BME280;13688;53.154;18.136;2023-04-27T02:02:20;101009.53;;;1.98;77.58
25869;BME280;13688;53.154;18.136;2023-04-27T02:07:43;101013.84;;;2.00;77.53
25869;BME280;13688;53.154;18.136;2023-04-27T02:13:05;101023.37;;;2.06;77.44
25869;BME280;13688;53.154;18.136;2023-04-27T02:18:27;101019.21;;;1.99;77.37
25869;BME280;13688;53.154;18.136;2023-04-27T02:23:50;101030.01;;;1.94;77.48
25869;BME280;13688;53.154;18.136;2023-04-27T02:29:14;101021.22;;;1.92;77.55
25869;BME280;13688;53.154;18.136;2023-04-27T02:34:37;101033.46;;;1.96;77.60
25869;BME280;13688;53.154;18.136;2023-04-27T02:40:00;101035.31;;;1.94;77.58
25869;BME280;13688;53.154;18.136;2023-04-27T02:45:23;101030.03;;;1.93;77.57
25869;BME280;13688;53.154;18.136;2023-04-27T02:50:49;101030.09;;;1.91;77.57
25869;BME280;13688;53.154;18.136;2023-04-27T02:56:11;101038.30;;;1.85;77.57
25869;BME280;13688;53.154;18.136;2023-04-27T03:01:34;101042.15;;;1.77;77.79
25869;BME280;13688;53.154;18.136;2023-04-27T03:06:57;101043.41;;;1.66;78.17
25869;BME280;13688;53.154;18.136;2023-04-27T03:12:20;101046.05;;;1.66;78.63
25869;BME280;13688;53.154;18.136;2023-04-27T03:17:43;101046.14;;;1.63;78.97
25869;BME280;13688;53.154;18.136;2023-04-27T03:23:05;101058.32;;;1.69;79.24
25869;BME280;13688;53.154;18.136;2023-04-27T03:28:27;101061.84;;;1.69;79.48
25869;BME280;13688;53.154;18.136;2023-04-27T03:33:51;101064.16;;;1.79;79.56
25869;BME280;13688;53.154;18.136;2023-04-27T03:39:13;101063.11;;;1.83;79.58
25869;BME280;13688;53.154;18.136;2023-04-27T03:44:35;101063.03;;;1.86;79.56
25869;BME280;13688;53.154;18.136;2023-04-27T03:49:58;101070.98;;;1.86;79.54
25869;BME280;13688;53.154;18.136;2023-04-27T03:55:20;101083.31;;;1.87;79.64
25869;BME280;13688;53.154;18.136;2023-04-27T04:00:43;101078.02;;;1.87;79.76
25869;BME280;13688;53.154;18.136;2023-04-27T04:06:05;101088.83;;;1.81;79.86
25869;BME280;13688;53.154;18.136;2023-04-27T04:11:28;101100.62;;;1.72;80.12
25869;BME280;13688;53.154;18.136;2023-04-27T04:16:50;101099.88;;;1.68;80.51
25869;BME280;13688;53.154;18.136;2023-04-27T04:22:12;101103.56;;;1.64;80.87
25869;BME280;13688;53.154;18.136;2023-04-27T04:27:35;101108.86;;;1.64;81.24
25869;BME280;13688;53.154;18.136;2023-04-27T04:32:57;101108.89;;;1.63;81.58
25869;BME280;13688;53.154;18.136;2023-04-27T04:38:20;101114.97;;;1.66;81.89
25869;BME280;13688;53.154;18.136;2023-04-27T04:43:43;101124.21;;;1.80;82.08
25869;BME280;13688;53.154;18.136;2023-04-27T04:49:06;101119.25;;;1.95;82.04
25869;BME280;13688;53.154;18.136;2023-04-27T04:54:30;101130.33;;;2.07;81.93
25869;BME280;13688;53.154;18.136;2023-04-27T04:59:52;101134.31;;;2.18;81.83
25869;BME280;13688;53.154;18.136;2023-04-27T05:05:24;101126.02;;;2.27;81.68
25869;BME280;13688;53.154;18.136;2023-04-27T05:10:52;101129.91;;;2.42;81.57
25869;BME280;13688;53.154;18.136;2023-04-27T05:16:12;101121.34;;;2.57;81.37
25869;BME280;13688;53.154;18.136;2023-04-27T05:21:36;101134.64;;;2.79;81.02
25869;BME280;13688;53.154;18.136;2023-04-27T05:27:01;101128.58;;;2.99;80.47
25869;BME280;13688;53.154;18.136;2023-04-27T05:32:26;101137.14;;;3.28;79.81
25869;BME280;13688;53.154;18.136;2023-04-27T05:37:51;101146.53;;;3.58;78.97
25869;BME280;13688;53.154;18.136;2023-04-27T05:43:16;101142.02;;;3.81;77.80
25869;BME280;13688;53.154;18.136;2023-04-27T05:48:41;101139.81;;;4.11;76.45
25869;BME280;13688;53.154;18.136;2023-04-27T05:54:06;101140.23;;;4.41;74.92
25869;BME280;13688;53.154;18.136;2023-04-27T05:59:31;101155.53;;;4.75;73.21
25869;BME280;13688;53.154;18.136;2023-04-27T06:04:55;101154.36;;;4.99;71.33
25869;BME280;13688;53.154;18.136;2023-04-27T06:10:19;101160.61;;;5.17;69.57
25869;BME280;13688;53.154;18.136;2023-04-27T06:15:42;101165.39;;;5.46;68.42
25869;BME280;13688;53.154;18.136;2023-04-27T06:21:06;101152.91;;;5.47;66.85
25869;BME280;13688;53.154;18.136;2023-04-27T06:26:30;101160.54;;;5.55;65.73
25869;BME280;13688;53.154;18.136;2023-04-27T06:31:55;101172.41;;;5.84;65.77
25869;BME280;13688;53.154;18.136;2023-04-27T06:37:20;101170.39;;;5.89;64.84
25869;BME280;13688;53.154;18.136;2023-04-27T06:42:44;101158.63;;;5.93;63.50
25869;BME280;13688;53.154;18.136;2023-04-27T06:48:08;101160.36;;;6.11;62.20
25869;BME280;13688;53.154;18.136;2023-04-27T06:53:33;101150.14;;;6.19;60.12
25869;BME280;13688;53.154;18.136;2023-04-27T06:58:59;101162.35;;;6.41;59.90
25869;BME280;13688;53.154;18.136;2023-04-27T07:04:24;101148.95;;;6.58;59.08
25869;BME280;13688;53.154;18.136;2023-04-27T07:09:49;101153.62;;;6.70;57.72
25869;BME280;13688;53.154;18.136;2023-04-27T07:15:14;101162.95;;;6.95;56.52
25869;BME280;13688;53.154;18.136;2023-04-27T07:20:39;101144.75;;;6.70;56.63
25869;BME280;13688;53.154;18.136;2023-04-27T07:26:04;101159.14;;;6.83;56.70
25869;BME280;13688;53.154;18.136;2023-04-27T07:31:28;101145.87;;;7.13;56.61
25869;BME280;13688;53.154;18.136;2023-04-27T07:36:53;101159.70;;;7.05;56.03
25869;BME280;13688;53.154;18.136;2023-04-27T07:42:18;101178.12;;;6.94;55.83
25869;BME280;13688;53.154;18.136;2023-04-27T07:47:43;101169.53;;;7.05;55.20
25869;BME280;13688;53.154;18.136;2023-04-27T07:53:08;101152.42;;;7.39;53.52
25869;BME280;13688;53.154;18.136;2023-04-27T07:58:33;101168.83;;;7.79;52.71
25869;BME280;13688;53.154;18.136;2023-04-27T08:03:58;101160.53;;;7.37;51.10
25869;BME280;13688;53.154;18.136;2023-04-27T08:09:24;101177.72;;;7.17;51.48
25869;BME280;13688;53.154;18.136;2023-04-27T08:14:48;101158.14;;;7.17;50.93
25869;BME280;13688;53.154;18.136;2023-04-27T08:20:11;101171.08;;;7.09;49.84
25869;BME280;13688;53.154;18.136;2023-04-27T08:25:35;101161.22;;;7.41;49.13
25869;BME280;13688;53.154;18.136;2023-04-27T08:30:58;101158.05;;;7.34;47.60
25869;BME280;13688;53.154;18.136;2023-04-27T08:36:23;101157.80;;;7.69;47.41
25869;BME280;13688;53.154;18.136;2023-04-27T08:41:47;101151.92;;;8.22;47.44
25869;BME280;13688;53.154;18.136;2023-04-27T08:47:11;101157.12;;;7.95;47.28
25869;BME280;13688;53.154;18.136;2023-04-27T08:52:37;101155.76;;;8.32;48.19
25869;BME280;13688;53.154;18.136;2023-04-27T08:58:02;101150.66;;;8.14;47.72
25869;BME280;13688;53.154;18.136;2023-04-27T09:03:29;101157.70;;;7.70;46.78
25869;BME280;13688;53.154;18.136;2023-04-27T09:08:55;101163.38;;;7.80;45.87
25869;BME280;13688;53.154;18.136;2023-04-27T09:14:28;101158.08;;;7.94;47.93
25869;BME280;13688;53.154;18.136;2023-04-27T09:20:01;101155.34;;;7.80;48.31
25869;BME280;13688;53.154;18.136;2023-04-27T09:25:38;101157.44;;;8.05;47.80
25869;BME280;13688;53.154;18.136;2023-04-27T09:31:03;101168.55;;;8.13;47.47
25869;BME280;13688;53.154;18.136;2023-04-27T09:36:27;101171.95;;;7.71;47.47
25869;BME280;13688;53.154;18.136;2023-04-27T09:41:52;101154.41;;;8.97;47.08
25869;BME280;13688;53.154;18.136;2023-04-27T09:47:15;101137.72;;;9.47;43.82
25869;BME280;13688;53.154;18.136;2023-04-27T09:52:38;101166.94;;;8.25;43.14
25869;BME280;13688;53.154;18.136;2023-04-27T10:09:52;101164.86;;;8.87;42.34
25869;BME280;13688;53.154;18.136;2023-04-27T10:15:26;101166.33;;;8.06;42.05
25869;BME280;13688;53.154;18.136;2023-04-27T10:20:41;101171.18;;;7.99;42.64
25869;BME280;13688;53.154;18.136;2023-04-27T10:26:07;101188.54;;;8.52;42.86
25869;BME280;13688;53.154;18.136;2023-04-27T10:31:33;101167.39;;;9.98;39.35
25869;BME280;13688;53.154;18.136;2023-04-27T10:37:05;101167.19;;;8.65;40.18
25869;BME280;13688;53.154;18.136;2023-04-27T10:42:33;101173.71;;;8.16;42.48
25869;BME280;13688;53.154;18.136;2023-04-27T10:48:02;101170.47;;;8.11;44.02
25869;BME280;13688;53.154;18.136;2023-04-27T10:53:32;101167.14;;;8.22;45.12
25869;BME280;13688;53.154;18.136;2023-04-27T10:58:54;101162.77;;;8.35;44.35
25869;BME280;13688;53.154;18.136;2023-04-27T11:04:21;101172.25;;;8.83;44.40
25869;BME280;13688;53.154;18.136;2023-04-27T11:09:54;101171.97;;;8.45;42.21
25869;BME280;13688;53.154;18.136;2023-04-27T11:15:19;101176.48;;;8.59;42.57
25869;BME280;13688;53.154;18.136;2023-04-27T11:20:45;101194.36;;;8.58;41.27
25869;BME280;13688;53.154;18.136;2023-04-27T11:26:23;101174.37;;;8.64;40.36
25869;BME280;13688;53.154;18.136;2023-04-27T11:31:49;101188.53;;;8.66;39.84
25869;BME280;13688;53.154;18.136;2023-04-27T11:37:19;101190.45;;;8.64;40.00
25869;BME280;13688;53.154;18.136;2023-04-27T11:42:41;101187.67;;;8.66;41.56
25869;BME280;13688;53.154;18.136;2023-04-27T11:48:11;101191.58;;;9.03;42.67
25869;BME280;13688;53.154;18.136;2023-04-27T11:53:41;101195.70;;;9.08;42.02
25869;BME280;13688;53.154;18.136;2023-04-27T11:59:21;101185.94;;;9.07;40.95
25869;BME280;13688;53.154;18.136;2023-04-27T12:04:43;101180.58;;;8.93;40.65
25869;BME280;13688;53.154;18.136;2023-04-27T12:10:08;101185.36;;;9.02;40.35
25869;BME280;13688;53.154;18.136;2023-04-27T12:15:32;101188.79;;;9.18;39.63
25869;BME280;13688;53.154;18.136;2023-04-27T12:20:56;101187.13;;;9.30;38.44
25869;BME280;13688;53.154;18.136;2023-04-27T12:26:36;101203.49;;;9.40;39.42
25869;BME280;13688;53.154;18.136;2023-04-27T12:31:48;101198.73;;;9.16;38.49
25869;BME280;13688;53.154;18.136;2023-04-27T12:37:12;101210.37;;;9.44;38.18
25869;BME280;13688;53.154;18.136;2023-04-27T12:42:37;101200.61;;;9.70;37.19
25869;BME280;13688;53.154;18.136;2023-04-27T12:48:02;101195.38;;;9.81;37.18
25869;BME280;13688;53.154;18.136;2023-04-27T12:53:27;101192.19;;;10.41;34.60
25869;BME280;13688;53.154;18.136;2023-04-27T12:58:51;101192.81;;;10.96;32.37
25869;BME280;13688;53.154;18.136;2023-04-27T13:04:19;101177.22;;;11.01;31.55
25869;BME280;13688;53.154;18.136;2023-04-27T13:09:45;101183.17;;;10.55;32.60
25869;BME280;13688;53.154;18.136;2023-04-27T13:15:10;101190.31;;;10.16;34.64
25869;BME280;13688;53.154;18.136;2023-04-27T13:20:35;101191.84;;;9.81;36.64
25869;BME280;13688;53.154;18.136;2023-04-27T13:26:00;101202.09;;;10.66;36.38
25869;BME280;13688;53.154;18.136;2023-04-27T13:31:25;101194.65;;;10.95;34.45
25869;BME280;13688;53.154;18.136;2023-04-27T13:36:49;101199.23;;;10.17;35.10
25869;BME280;13688;53.154;18.136;2023-04-27T13:42:13;101211.59;;;10.19;35.57
25869;BME280;13688;53.154;18.136;2023-04-27T13:47:40;101218.22;;;10.01;33.05
25869;BME280;13688;53.154;18.136;2023-04-27T13:53:03;101210.39;;;9.71;33.20
25869;BME280;13688;53.154;18.136;2023-04-27T13:58:28;101220.41;;;9.55;33.55
25869;BME280;13688;53.154;18.136;2023-04-27T14:03:52;101232.21;;;9.52;36.46
25869;BME280;13688;53.154;18.136;2023-04-27T14:09:18;101216.86;;;9.54;38.61
25869;BME280;13688;53.154;18.136;2023-04-27T14:14:42;101217.91;;;9.66;37.19
25869;BME280;13688;53.154;18.136;2023-04-27T14:20:07;101225.39;;;9.20;36.78
25869;BME280;13688;53.154;18.136;2023-04-27T14:25:30;101223.53;;;10.15;37.43
25869;BME280;13688;53.154;18.136;2023-04-27T14:30:54;101234.03;;;10.96;34.42
25869;BME280;13688;53.154;18.136;2023-04-27T14:36:18;101224.03;;;10.35;35.55
25869;BME280;13688;53.154;18.136;2023-04-27T14:41:42;101232.98;;;9.81;36.36
25869;BME280;13688;53.154;18.136;2023-04-27T14:47:07;101235.11;;;9.49;37.76
25869;BME280;13688;53.154;18.136;2023-04-27T14:52:31;101256.72;;;9.05;37.97
25869;BME280;13688;53.154;18.136;2023-04-27T14:57:55;101252.23;;;8.91;38.73
25869;BME280;13688;53.154;18.136;2023-04-27T15:03:20;101258.06;;;8.83;38.87
25869;BME280;13688;53.154;18.136;2023-04-27T15:08:47;101260.56;;;9.01;39.99
25869;BME280;13688;53.154;18.136;2023-04-27T15:14:13;101266.70;;;8.88;39.18
25869;BME280;13688;53.154;18.136;2023-04-27T15:19:38;101264.77;;;9.05;39.48
25869;BME280;13688;53.154;18.136;2023-04-27T15:25:19;101272.13;;;9.15;39.46
25869;BME280;13688;53.154;18.136;2023-04-27T15:30:42;101268.03;;;9.10;39.96
25869;BME280;13688;53.154;18.136;2023-04-27T15:36:07;101267.59;;;9.59;39.60
25869;BME280;13688;53.154;18.136;2023-04-27T15:41:32;101262.88;;;10.56;37.03
25869;BME280;13688;53.154;18.136;2023-04-27T15:46:57;101265.02;;;11.64;35.14
25869;BME280;13688;53.154;18.136;2023-04-27T15:52:21;101266.21;;;10.98;34.91
25869;BME280;13688;53.154;18.136;2023-04-27T15:57:45;101266.98;;;10.22;36.06
25869;BME280;13688;53.154;18.136;2023-04-27T16:03:10;101268.38;;;9.46;38.26
25869;BME280;13688;53.154;18.136;2023-04-27T16:08:35;101276.06;;;8.96;40.87
25869;BME280;13688;53.154;18.136;2023-04-27T16:13:58;101281.59;;;8.64;42.27
25869;BME280;13688;53.154;18.136;2023-04-27T16:19:28;101278.17;;;9.05;42.50
25869;BME280;13688;53.154;18.136;2023-04-27T16:24:49;101274.84;;;9.01;41.87
25869;BME280;13688;53.154;18.136;2023-04-27T16:30:15;101265.97;;;9.56;40.47
25869;BME280;13688;53.154;18.136;2023-04-27T16:35:39;101263.97;;;10.92;38.86
25869;BME280;13688;53.154;18.136;2023-04-27T16:41:04;101257.30;;;10.84;36.84
25869;BME280;13688;53.154;18.136;2023-04-27T16:46:29;101265.09;;;10.37;36.92
25869;BME280;13688;53.154;18.136;2023-04-27T16:51:53;101260.66;;;11.50;36.91
25869;BME280;13688;53.154;18.136;2023-04-27T16:57:18;101262.30;;;11.27;36.74
25869;BME280;13688;53.154;18.136;2023-04-27T17:02:43;101264.86;;;10.27;37.76
25869;BME280;13688;53.154;18.136;2023-04-27T17:08:07;101268.77;;;9.26;41.28
25869;BME280;13688;53.154;18.136;2023-04-27T17:13:32;101268.39;;;8.61;43.86
25869;BME280;13688;53.154;18.136;2023-04-27T17:18:56;101282.58;;;8.17;45.59
25869;BME280;13688;53.154;18.136;2023-04-27T17:24:21;101288.70;;;8.19;45.81
25869;BME280;13688;53.154;18.136;2023-04-27T17:29:46;101306.48;;;8.66;43.56
25869;BME280;13688;53.154;18.136;2023-04-27T17:35:11;101315.17;;;8.55;43.60
25869;BME280;13688;53.154;18.136;2023-04-27T17:40:36;101299.29;;;7.91;45.25
25869;BME280;13688;53.154;18.136;2023-04-27T17:46:04;101302.70;;;7.63;46.61
25869;BME280;13688;53.154;18.136;2023-04-27T17:51:27;101294.63;;;7.31;47.59
25869;BME280;13688;53.154;18.136;2023-04-27T17:56:52;101303.37;;;7.02;48.79
25869;BME280;13688;53.154;18.136;2023-04-27T18:02:18;101301.76;;;6.82;49.86
25869;BME280;13688;53.154;18.136;2023-04-27T18:07:43;101306.20;;;6.48;50.71
25869;BME280;13688;53.154;18.136;2023-04-27T18:13:08;101303.20;;;6.20;51.90
25869;BME280;13688;53.154;18.136;2023-04-27T18:18:33;101305.66;;;5.69;54.18
25869;BME280;13688;53.154;18.136;2023-04-27T18:23:57;101314.81;;;5.45;55.17
25869;BME280;13688;53.154;18.136;2023-04-27T18:29:25;101324.80;;;5.02;56.76
25869;BME280;13688;53.154;18.136;2023-04-27T18:34:49;101334.67;;;4.59;58.25
25869;BME280;13688;53.154;18.136;2023-04-27T18:40:17;101336.16;;;4.24;59.89
25869;BME280;13688;53.154;18.136;2023-04-27T18:45:42;101343.86;;;4.10;61.03
25869;BME280;13688;53.154;18.136;2023-04-27T18:51:06;101351.18;;;4.47;60.86
25869;BME280;13688;53.154;18.136;2023-04-27T18:56:33;101348.38;;;4.91;59.03
25869;BME280;13688;53.154;18.136;2023-04-27T19:01:59;101352.36;;;5.01;56.86
25869;BME280;13688;53.154;18.136;2023-04-27T19:07:24;101357.65;;;5.03;56.40
25869;BME280;13688;53.154;18.136;2023-04-27T19:12:49;101363.83;;;4.63;56.92
25869;BME280;13688;53.154;18.136;2023-04-27T19:18:15;101368.44;;;4.17;58.95
25869;BME280;13688;53.154;18.136;2023-04-27T19:23:39;101365.72;;;3.96;60.22
25869;BME280;13688;53.154;18.136;2023-04-27T19:29:04;101362.98;;;3.53;61.21
25869;BME280;13688;53.154;18.136;2023-04-27T19:34:29;101366.68;;;3.25;63.21
25869;BME280;13688;53.154;18.136;2023-04-27T19:39:53;101373.50;;;3.09;64.38
25869;BME280;13688;53.154;18.136;2023-04-27T19:45:18;101384.61;;;3.20;65.96
25869;BME280;13688;53.154;18.136;2023-04-27T19:50:44;101381.17;;;3.16;67.68
25869;BME280;13688;53.154;18.136;2023-04-27T19:56:07;101386.61;;;3.13;68.29
25869;BME280;13688;53.154;18.136;2023-04-27T20:01:31;101386.73;;;3.10;68.58
25869;BME280;13688;53.154;18.136;2023-04-27T20:06:56;101383.77;;;3.18;68.37
25869;BME280;13688;53.154;18.136;2023-04-27T20:12:21;101388.40;;;3.13;67.89
25869;BME280;13688;53.154;18.136;2023-04-27T20:17:46;101390.33;;;3.33;68.26
25869;BME280;13688;53.154;18.136;2023-04-27T20:23:11;101401.95;;;3.30;69.04
25869;BME280;13688;53.154;18.136;2023-04-27T20:28:36;101394.40;;;3.18;69.57
25869;BME280;13688;53.154;18.136;2023-04-27T20:33:59;101399.95;;;3.12;69.61
25869;BME280;13688;53.154;18.136;2023-04-27T20:39:23;101398.55;;;3.02;68.94
25869;BME280;13688;53.154;18.136;2023-04-27T20:44:47;101408.03;;;2.84;69.33
25869;BME280;13688;53.154;18.136;2023-04-27T20:50:14;101407.30;;;2.79;70.49
25869;BME280;13688;53.154;18.136;2023-04-27T20:55:37;101406.42;;;2.53;70.80
25869;BME280;13688;53.154;18.136;2023-04-27T21:01:02;101410.87;;;2.53;71.80
25869;BME280;13688;53.154;18.136;2023-04-27T21:06:26;101407.67;;;2.15;72.58
25869;BME280;13688;53.154;18.136;2023-04-27T21:11:51;101409.58;;;1.82;72.83
25869;BME280;13688;53.154;18.136;2023-04-27T21:17:16;101407.41;;;1.67;73.49
25869;BME280;13688;53.154;18.136;2023-04-27T21:22:39;101407.14;;;1.47;74.07
25869;BME280;13688;53.154;18.136;2023-04-27T21:28:05;101411.23;;;1.27;74.73
25869;BME280;13688;53.154;18.136;2023-04-27T21:33:31;101402.02;;;1.09;75.37
25869;BME280;13688;53.154;18.136;2023-04-27T21:38:56;101408.52;;;0.98;75.80
25869;BME280;13688;53.154;18.136;2023-04-27T21:44:21;101402.38;;;0.96;76.70
25869;BME280;13688;53.154;18.136;2023-04-27T21:49:45;101413.09;;;0.91;77.20
25869;BME280;13688;53.154;18.136;2023-04-27T21:55:09;101408.33;;;0.71;77.56
25869;BME280;13688;53.154;18.136;2023-04-27T22:00:33;101408.94;;;0.48;77.95
25869;BME280;13688;53.154;18.136;2023-04-27T22:05:58;101414.45;;;0.39;78.70
25869;BME280;13688;53.154;18.136;2023-04-27T22:11:24;101410.30;;;0.27;79.63
25869;BME280;13688;53.154;18.136;2023-04-27T22:16:48;101420.14;;;0.22;80.48
25869;BME280;13688;53.154;18.136;2023-04-27T22:22:12;101422.14;;;0.13;81.19
25869;BME280;13688;53.154;18.136;2023-04-27T22:27:37;101425.16;;;-0.04;81.81
25869;BME280;13688;53.154;18.136;2023-04-27T22:33:01;101419.87;;;-0.04;82.41
25869;BME280;13688;53.154;18.136;2023-04-27T22:38:26;101428.50;;;0.04;83.05
25869;BME280;13688;53.154;18.136;2023-04-27T22:43:51;101418.92;;;-0.02;83.38
25869;BME280;13688;53.154;18.136;2023-04-27T22:49:16;101429.05;;;-0.20;83.55
25869;BME280;13688;53.154;18.136;2023-04-27T22:54:39;101428.37;;;-0.28;83.86
25869;BME280;13688;53.154;18.136;2023-04-27T23:00:05;101422.84;;;-0.18;84.45
25869;BME280;13688;53.154;18.136;2023-04-27T23:05:29;101416.97;;;-0.32;84.65
25869;BME280;13688;53.154;18.136;2023-04-27T23:10:53;101415.23;;;-0.33;84.89
25869;BME280;13688;53.154;18.136;2023-04-27T23:16:17;101417.17;;;-0.41;85.21
25869;BME280;13688;53.154;18.136;2023-04-27T23:21:42;101415.02;;;-0.64;85.41
25869;BME280;13688;53.154;18.136;2023-04-27T23:27:07;101416.22;;;-0.80;85.72
25869;BME280;13688;53.154;18.136;2023-04-27T23:32:37;101421.53;;;-0.82;86.20
25869;BME280;13688;53.154;18.136;2023-04-27T23:38:00;101415.28;;;-0.76;86.87
25869;BME280;13688;53.154;18.136;2023-04-27T23:43:24;101417.95;;;-0.79;87.42
25869;BME280;13688;53.154;18.136;2023-04-27T23:48:49;101417.81;;;-0.72;88.01
25869;BME280;13688;53.154;18.136;2023-04-27T23:54:13;101423.27;;;-0.81;88.39
25869;BME280;13688;53.154;18.136;2023-04-27T23:59:41;101420.12;;;-1.00;88.49
